sensor_id;sensor_type;location;lat;lon;timestamp;P1;durP1;ratioP1;P2;durP2;ratioP2
9364;SDS011;4722;49.340;9.800;2022-09-01T00:01:41;4.70;;;2.88;;
9364;SDS011;4722;49.340;9.800;2022-09-01T00:04:10;4.45;;;2.50;;
9364;SDS011;4722;49.340;9.800;2022-09-01T00:06:39;7.63;;;2.47;;
9364;SDS011;4722;49.340;9.800;2022-09-01T00:09:06;5.35;;;2.47;;
9364;SDS011;4722;49.340;9.800;2022-09-01T00:11:34;3.38;;;1.80;;
9364;SDS011;4722;49.340;9.800;2022-09-01T00:14:00;3.55;;;2.33;;
9364;SDS011;4722;49.340;9.800;2022-09-01T00:16:27;4.60;;;2.35;;
9364;SDS011;4722;49.340;9.800;2022-09-01T00:18:54;9.65;;;3.17;;
9364;SDS011;4722;49.340;9.800;2022-09-01T00:21:25;4.10;;;2.40;;
9364;SDS011;4722;49.340;9.800;2022-09-01T00:23:53;5.07;;;3.17;;
9364;SDS011;4722;49.340;9.800;2022-09-01T00:26:19;6.55;;;2.92;;
9364;SDS011;4722;49.340;9.800;2022-09-01T00:28:45;4.97;;;2.58;;
9364;SDS011;4722;49.340;9.800;2022-09-01T00:31:11;6.18;;;3.60;;
9364;SDS011;4722;49.340;9.800;2022-09-01T00:33:41;4.10;;;2.50;;
9364;SDS011;4722;49.340;9.800;2022-09-01T00:36:06;7.55;;;3.58;;
9364;SDS011;4722;49.340;9.800;2022-09-01T00:38:33;4.65;;;2.97;;
9364;SDS011;4722;49.340;9.800;2022-09-01T00:40:59;8.82;;;3.00;;
9364;SDS011;4722;49.340;9.800;2022-09-01T00:43:42;7.30;;;4.20;;
9364;SDS011;4722;49.340;9.800;2022-09-01T00:46:14;5.07;;;2.78;;
9364;SDS011;4722;49.340;9.800;2022-09-01T00:48:45;5.13;;;3.05;;
9364;SDS011;4722;49.340;9.800;2022-09-01T00:51:15;2.92;;;2.20;;
9364;SDS011;4722;49.340;9.800;2022-09-01T00:53:42;5.85;;;3.03;;
9364;SDS011;4722;49.340;9.800;2022-09-01T00:56:09;5.68;;;3.08;;
9364;SDS011;4722;49.340;9.800;2022-09-01T00:58:36;6.18;;;2.72;;
9364;SDS011;4722;49.340;9.800;2022-09-01T01:01:03;7.20;;;3.25;;
9364;SDS011;4722;49.340;9.800;2022-09-01T01:03:33;5.20;;;2.67;;
9364;SDS011;4722;49.340;9.800;2022-09-01T01:06:00;5.68;;;2.83;;
9364;SDS011;4722;49.340;9.800;2022-09-01T01:08:32;5.50;;;2.85;;
9364;SDS011;4722;49.340;9.800;2022-09-01T01:11:06;5.50;;;3.20;;
9364;SDS011;4722;49.340;9.800;2022-09-01T01:13:48;6.35;;;3.55;;
9364;SDS011;4722;49.340;9.800;2022-09-01T01:16:17;7.20;;;3.80;;
9364;SDS011;4722;49.340;9.800;2022-09-01T01:18:43;5.30;;;2.67;;
9364;SDS011;4722;49.340;9.800;2022-09-01T01:21:14;5.88;;;3.28;;
9364;SDS011;4722;49.340;9.800;2022-09-01T01:24:42;5.20;;;2.70;;
9364;SDS011;4722;49.340;9.800;2022-09-01T01:26:49;3.92;;;2.47;;
9364;SDS011;4722;49.340;9.800;2022-09-01T01:29:15;5.03;;;3.22;;
9364;SDS011;4722;49.340;9.800;2022-09-01T01:31:41;4.45;;;2.70;;
9364;SDS011;4722;49.340;9.800;2022-09-01T01:34:07;7.55;;;3.33;;
9364;SDS011;4722;49.340;9.800;2022-09-01T01:36:35;5.97;;;3.35;;
9364;SDS011;4722;49.340;9.800;2022-09-01T01:41:39;5.68;;;3.17;;
9364;SDS011;4722;49.340;9.800;2022-09-01T01:44:07;6.88;;;3.63;;
9364;SDS011;4722;49.340;9.800;2022-09-01T01:46:34;3.47;;;2.22;;
9364;SDS011;4722;49.340;9.800;2022-09-01T01:49:01;4.72;;;2.63;;
9364;SDS011;4722;49.340;9.800;2022-09-01T01:51:27;5.35;;;3.38;;
9364;SDS011;4722;49.340;9.800;2022-09-01T01:53:55;5.35;;;2.83;;
9364;SDS011;4722;49.340;9.800;2022-09-01T01:56:23;6.13;;;3.30;;
9364;SDS011;4722;49.340;9.800;2022-09-01T01:58:50;7.30;;;3.80;;
9364;SDS011;4722;49.340;9.800;2022-09-01T02:01:18;6.32;;;2.95;;
9364;SDS011;4722;49.340;9.800;2022-09-01T02:03:46;7.05;;;3.80;;
9364;SDS011;4722;49.340;9.800;2022-09-01T02:06:11;5.45;;;3.08;;
9364;SDS011;4722;49.340;9.800;2022-09-01T02:08:38;5.35;;;3.40;;
9364;SDS011;4722;49.340;9.800;2022-09-01T02:11:05;6.97;;;3.65;;
9364;SDS011;4722;49.340;9.800;2022-09-01T02:13:31;5.55;;;2.97;;
9364;SDS011;4722;49.340;9.800;2022-09-01T02:16:03;5.65;;;3.05;;
9364;SDS011;4722;49.340;9.800;2022-09-01T02:18:35;6.43;;;3.00;;
9364;SDS011;4722;49.340;9.800;2022-09-01T02:21:07;6.13;;;3.05;;
9364;SDS011;4722;49.340;9.800;2022-09-01T02:23:38;6.32;;;3.63;;
9364;SDS011;4722;49.340;9.800;2022-09-01T02:26:05;6.70;;;3.95;;
9364;SDS011;4722;49.340;9.800;2022-09-01T02:28:33;6.00;;;3.47;;
9364;SDS011;4722;49.340;9.800;2022-09-01T02:31:01;4.93;;;2.88;;
9364;SDS011;4722;49.340;9.800;2022-09-01T02:33:28;4.25;;;2.60;;
9364;SDS011;4722;49.340;9.800;2022-09-01T02:35:56;6.13;;;3.20;;
9364;SDS011;4722;49.340;9.800;2022-09-01T02:38:25;6.30;;;3.55;;
9364;SDS011;4722;49.340;9.800;2022-09-01T02:40:53;4.18;;;2.75;;
9364;SDS011;4722;49.340;9.800;2022-09-01T02:43:20;3.97;;;2.15;;
9364;SDS011;4722;49.340;9.800;2022-09-01T02:45:46;5.47;;;3.03;;
9364;SDS011;4722;49.340;9.800;2022-09-01T02:48:15;6.82;;;3.95;;
9364;SDS011;4722;49.340;9.800;2022-09-01T02:50:42;6.90;;;3.53;;
9364;SDS011;4722;49.340;9.800;2022-09-01T02:53:08;5.65;;;3.47;;
9364;SDS011;4722;49.340;9.800;2022-09-01T02:55:36;7.45;;;3.15;;
9364;SDS011;4722;49.340;9.800;2022-09-01T02:58:02;5.43;;;3.03;;
9364;SDS011;4722;49.340;9.800;2022-09-01T03:00:28;8.50;;;3.05;;
9364;SDS011;4722;49.340;9.800;2022-09-01T03:02:58;3.33;;;2.28;;
9364;SDS011;4722;49.340;9.800;2022-09-01T03:05:28;8.57;;;3.38;;
9364;SDS011;4722;49.340;9.800;2022-09-01T03:07:55;6.43;;;3.58;;
9364;SDS011;4722;49.340;9.800;2022-09-01T03:10:24;7.55;;;3.92;;
9364;SDS011;4722;49.340;9.800;2022-09-01T03:13:01;6.32;;;3.25;;
9364;SDS011;4722;49.340;9.800;2022-09-01T03:15:28;7.03;;;3.47;;
9364;SDS011;4722;49.340;9.800;2022-09-01T03:17:55;6.72;;;3.65;;
9364;SDS011;4722;49.340;9.800;2022-09-01T03:20:21;6.88;;;4.18;;
9364;SDS011;4722;49.340;9.800;2022-09-01T03:22:48;6.25;;;3.53;;
9364;SDS011;4722;49.340;9.800;2022-09-01T03:25:14;7.78;;;3.45;;
9364;SDS011;4722;49.340;9.800;2022-09-01T03:27:40;4.68;;;3.72;;
9364;SDS011;4722;49.340;9.800;2022-09-01T03:30:07;4.00;;;2.65;;
9364;SDS011;4722;49.340;9.800;2022-09-01T03:32:32;4.70;;;3.65;;
9364;SDS011;4722;49.340;9.800;2022-09-01T03:34:58;6.10;;;3.63;;
9364;SDS011;4722;49.340;9.800;2022-09-01T03:37:24;6.18;;;3.92;;
9364;SDS011;4722;49.340;9.800;2022-09-01T03:39:51;8.15;;;4.03;;
9364;SDS011;4722;49.340;9.800;2022-09-01T03:42:17;6.28;;;4.50;;
9364;SDS011;4722;49.340;9.800;2022-09-01T03:44:44;6.75;;;4.03;;
9364;SDS011;4722;49.340;9.800;2022-09-01T03:47:10;5.90;;;3.42;;
9364;SDS011;4722;49.340;9.800;2022-09-01T03:49:39;10.35;;;4.30;;
9364;SDS011;4722;49.340;9.800;2022-09-01T03:52:07;7.03;;;3.67;;
9364;SDS011;4722;49.340;9.800;2022-09-01T03:54:36;6.35;;;3.22;;
9364;SDS011;4722;49.340;9.800;2022-09-01T03:57:02;6.65;;;3.85;;
9364;SDS011;4722;49.340;9.800;2022-09-01T03:59:30;6.63;;;3.85;;
9364;SDS011;4722;49.340;9.800;2022-09-01T04:01:57;5.18;;;3.03;;
9364;SDS011;4722;49.340;9.800;2022-09-01T04:04:24;7.93;;;4.05;;
9364;SDS011;4722;49.340;9.800;2022-09-01T04:06:50;7.20;;;3.47;;
9364;SDS011;4722;49.340;9.800;2022-09-01T04:09:16;6.35;;;3.33;;
9364;SDS011;4722;49.340;9.800;2022-09-01T04:11:41;6.38;;;3.60;;
9364;SDS011;4722;49.340;9.800;2022-09-01T04:14:10;5.80;;;3.25;;
9364;SDS011;4722;49.340;9.800;2022-09-01T04:16:36;11.00;;;3.67;;
9364;SDS011;4722;49.340;9.800;2022-09-01T04:19:22;6.20;;;3.83;;
9364;SDS011;4722;49.340;9.800;2022-09-01T04:21:55;6.35;;;3.35;;
9364;SDS011;4722;49.340;9.800;2022-09-01T04:24:26;6.00;;;3.88;;
9364;SDS011;4722;49.340;9.800;2022-09-01T04:26:55;5.75;;;3.45;;
9364;SDS011;4722;49.340;9.800;2022-09-01T04:29:22;6.35;;;3.70;;
9364;SDS011;4722;49.340;9.800;2022-09-01T04:32:01;6.47;;;3.33;;
9364;SDS011;4722;49.340;9.800;2022-09-01T04:34:30;4.95;;;3.47;;
9364;SDS011;4722;49.340;9.800;2022-09-01T04:37:11;7.97;;;3.95;;
9364;SDS011;4722;49.340;9.800;2022-09-01T04:39:39;12.25;;;4.03;;
9364;SDS011;4722;49.340;9.800;2022-09-01T04:42:12;17.70;;;5.32;;
9364;SDS011;4722;49.340;9.800;2022-09-01T04:44:38;16.73;;;6.35;;
9364;SDS011;4722;49.340;9.800;2022-09-01T04:47:03;10.70;;;4.72;;
9364;SDS011;4722;49.340;9.800;2022-09-01T04:49:35;9.10;;;4.15;;
9364;SDS011;4722;49.340;9.800;2022-09-01T04:52:02;7.05;;;3.90;;
9364;SDS011;4722;49.340;9.800;2022-09-01T04:54:27;5.95;;;3.33;;
9364;SDS011;4722;49.340;9.800;2022-09-01T04:56:56;6.05;;;3.65;;
9364;SDS011;4722;49.340;9.800;2022-09-01T04:59:23;5.95;;;3.97;;
9364;SDS011;4722;49.340;9.800;2022-09-01T05:01:51;6.63;;;3.65;;
9364;SDS011;4722;49.340;9.800;2022-09-01T05:04:20;3.85;;;2.17;;
9364;SDS011;4722;49.340;9.800;2022-09-01T05:06:47;5.65;;;3.15;;
9364;SDS011;4722;49.340;9.800;2022-09-01T05:09:17;6.68;;;3.78;;
9364;SDS011;4722;49.340;9.800;2022-09-01T05:11:43;8.05;;;3.78;;
9364;SDS011;4722;49.340;9.800;2022-09-01T05:14:11;8.32;;;3.85;;
9364;SDS011;4722;49.340;9.800;2022-09-01T05:16:37;6.40;;;3.80;;
9364;SDS011;4722;49.340;9.800;2022-09-01T05:19:05;10.88;;;4.68;;
9364;SDS011;4722;49.340;9.800;2022-09-01T05:21:31;8.32;;;4.03;;
9364;SDS011;4722;49.340;9.800;2022-09-01T05:23:57;8.77;;;4.20;;
9364;SDS011;4722;49.340;9.800;2022-09-01T05:26:29;11.70;;;5.13;;
9364;SDS011;4722;49.340;9.800;2022-09-01T05:28:57;7.60;;;4.70;;
9364;SDS011;4722;49.340;9.800;2022-09-01T05:31:24;7.47;;;3.92;;
9364;SDS011;4722;49.340;9.800;2022-09-01T05:33:52;11.52;;;4.93;;
9364;SDS011;4722;49.340;9.800;2022-09-01T05:36:19;6.43;;;3.67;;
9364;SDS011;4722;49.340;9.800;2022-09-01T05:38:46;11.15;;;5.15;;
9364;SDS011;4722;49.340;9.800;2022-09-01T05:41:12;13.77;;;4.80;;
9364;SDS011;4722;49.340;9.800;2022-09-01T05:43:40;8.73;;;4.93;;
9364;SDS011;4722;49.340;9.800;2022-09-01T05:46:11;7.82;;;4.18;;
9364;SDS011;4722;49.340;9.800;2022-09-01T05:48:40;11.63;;;5.20;;
9364;SDS011;4722;49.340;9.800;2022-09-01T05:51:07;10.02;;;4.43;;
9364;SDS011;4722;49.340;9.800;2022-09-01T05:53:34;7.53;;;3.78;;
9364;SDS011;4722;49.340;9.800;2022-09-01T05:56:00;6.85;;;3.83;;
9364;SDS011;4722;49.340;9.800;2022-09-01T05:58:31;6.55;;;3.38;;
9364;SDS011;4722;49.340;9.800;2022-09-01T06:00:58;10.05;;;3.75;;
9364;SDS011;4722;49.340;9.800;2022-09-01T06:03:25;9.80;;;3.80;;
9364;SDS011;4722;49.340;9.800;2022-09-01T06:05:52;7.18;;;4.43;;
9364;SDS011;4722;49.340;9.800;2022-09-01T06:08:20;9.05;;;3.97;;
9364;SDS011;4722;49.340;9.800;2022-09-01T06:10:47;7.57;;;4.10;;
9364;SDS011;4722;49.340;9.800;2022-09-01T06:13:14;9.60;;;3.45;;
9364;SDS011;4722;49.340;9.800;2022-09-01T06:15:42;9.70;;;4.15;;
9364;SDS011;4722;49.340;9.800;2022-09-01T06:18:09;9.13;;;4.80;;
9364;SDS011;4722;49.340;9.800;2022-09-01T06:20:40;6.38;;;3.53;;
9364;SDS011;4722;49.340;9.800;2022-09-01T06:23:07;9.80;;;5.47;;
9364;SDS011;4722;49.340;9.800;2022-09-01T06:25:38;11.68;;;4.95;;
9364;SDS011;4722;49.340;9.800;2022-09-01T06:28:10;9.60;;;6.25;;
9364;SDS011;4722;49.340;9.800;2022-09-01T06:30:37;7.85;;;4.43;;
9364;SDS011;4722;49.340;9.800;2022-09-01T06:33:04;7.25;;;3.90;;
9364;SDS011;4722;49.340;9.800;2022-09-01T06:35:33;5.45;;;2.40;;
9364;SDS011;4722;49.340;9.800;2022-09-01T06:38:00;4.88;;;3.03;;
9364;SDS011;4722;49.340;9.800;2022-09-01T06:40:27;5.97;;;2.90;;
9364;SDS011;4722;49.340;9.800;2022-09-01T06:42:52;6.68;;;4.13;;
9364;SDS011;4722;49.340;9.800;2022-09-01T06:45:19;3.97;;;2.80;;
9364;SDS011;4722;49.340;9.800;2022-09-01T06:47:47;4.45;;;2.53;;
9364;SDS011;4722;49.340;9.800;2022-09-01T06:50:15;6.25;;;3.10;;
9364;SDS011;4722;49.340;9.800;2022-09-01T06:52:43;6.65;;;3.17;;
9364;SDS011;4722;49.340;9.800;2022-09-01T06:55:10;9.00;;;3.25;;
9364;SDS011;4722;49.340;9.800;2022-09-01T06:57:39;4.30;;;2.22;;
9364;SDS011;4722;49.340;9.800;2022-09-01T07:00:06;4.95;;;3.10;;
9364;SDS011;4722;49.340;9.800;2022-09-01T07:02:42;7.68;;;3.17;;
9364;SDS011;4722;49.340;9.800;2022-09-01T07:05:08;3.65;;;2.63;;
9364;SDS011;4722;49.340;9.800;2022-09-01T07:07:34;7.47;;;3.08;;
9364;SDS011;4722;49.340;9.800;2022-09-01T07:10:02;3.70;;;2.53;;
9364;SDS011;4722;49.340;9.800;2022-09-01T07:12:29;5.20;;;3.13;;
9364;SDS011;4722;49.340;9.800;2022-09-01T07:14:56;4.75;;;2.13;;
9364;SDS011;4722;49.340;9.800;2022-09-01T07:17:24;4.28;;;2.55;;
9364;SDS011;4722;49.340;9.800;2022-09-01T07:19:50;3.25;;;2.17;;
9364;SDS011;4722;49.340;9.800;2022-09-01T07:22:17;6.00;;;2.58;;
9364;SDS011;4722;49.340;9.800;2022-09-01T07:24:43;6.13;;;3.13;;
9364;SDS011;4722;49.340;9.800;2022-09-01T07:27:10;6.53;;;3.60;;
9364;SDS011;4722;49.340;9.800;2022-09-01T07:29:36;8.57;;;4.13;;
9364;SDS011;4722;49.340;9.800;2022-09-01T07:32:03;8.98;;;4.43;;
9364;SDS011;4722;49.340;9.800;2022-09-01T07:34:29;9.82;;;4.43;;
9364;SDS011;4722;49.340;9.800;2022-09-01T07:36:56;5.60;;;2.88;;
9364;SDS011;4722;49.340;9.800;2022-09-01T07:39:23;5.28;;;2.60;;
9364;SDS011;4722;49.340;9.800;2022-09-01T07:41:49;5.50;;;3.53;;
9364;SDS011;4722;49.340;9.800;2022-09-01T07:44:17;6.85;;;2.95;;
9364;SDS011;4722;49.340;9.800;2022-09-01T07:46:43;4.70;;;2.88;;
9364;SDS011;4722;49.340;9.800;2022-09-01T07:49:12;8.85;;;3.90;;
9364;SDS011;4722;49.340;9.800;2022-09-01T07:51:38;13.00;;;5.35;;
9364;SDS011;4722;49.340;9.800;2022-09-01T07:54:04;7.85;;;3.47;;
9364;SDS011;4722;49.340;9.800;2022-09-01T07:56:30;4.40;;;2.72;;
9364;SDS011;4722;49.340;9.800;2022-09-01T07:58:56;5.50;;;3.22;;
9364;SDS011;4722;49.340;9.800;2022-09-01T08:01:23;4.18;;;2.40;;
9364;SDS011;4722;49.340;9.800;2022-09-01T08:03:56;5.25;;;2.63;;
9364;SDS011;4722;49.340;9.800;2022-09-01T08:06:24;4.55;;;2.42;;
9364;SDS011;4722;49.340;9.800;2022-09-01T08:08:51;8.60;;;3.13;;
9364;SDS011;4722;49.340;9.800;2022-09-01T08:11:23;7.13;;;3.42;;
9364;SDS011;4722;49.340;9.800;2022-09-01T08:13:53;5.28;;;2.83;;
9364;SDS011;4722;49.340;9.800;2022-09-01T08:16:19;6.78;;;2.60;;
9364;SDS011;4722;49.340;9.800;2022-09-01T08:18:46;11.65;;;4.35;;
9364;SDS011;4722;49.340;9.800;2022-09-01T08:21:13;6.05;;;3.10;;
9364;SDS011;4722;49.340;9.800;2022-09-01T08:23:40;4.85;;;2.10;;
9364;SDS011;4722;49.340;9.800;2022-09-01T08:26:06;5.80;;;3.35;;
9364;SDS011;4722;49.340;9.800;2022-09-01T08:28:34;4.93;;;2.30;;
9364;SDS011;4722;49.340;9.800;2022-09-01T08:31:04;2.85;;;1.92;;
9364;SDS011;4722;49.340;9.800;2022-09-01T08:33:31;3.15;;;2.10;;
9364;SDS011;4722;49.340;9.800;2022-09-01T08:35:59;5.55;;;2.38;;
9364;SDS011;4722;49.340;9.800;2022-09-01T08:38:25;4.45;;;2.03;;
9364;SDS011;4722;49.340;9.800;2022-09-01T08:40:53;5.07;;;1.92;;
9364;SDS011;4722;49.340;9.800;2022-09-01T08:46:28;2.42;;;1.52;;
9364;SDS011;4722;49.340;9.800;2022-09-01T08:48:59;3.97;;;1.60;;
9364;SDS011;4722;49.340;9.800;2022-09-01T08:56:40;2.78;;;1.55;;
9364;SDS011;4722;49.340;9.800;2022-09-01T08:59:07;4.85;;;2.08;;
9364;SDS011;4722;49.340;9.800;2022-09-01T09:01:47;7.22;;;2.38;;
9364;SDS011;4722;49.340;9.800;2022-09-01T09:09:46;5.90;;;2.85;;
9364;SDS011;4722;49.340;9.800;2022-09-01T09:12:27;6.35;;;1.95;;
9364;SDS011;4722;49.340;9.800;2022-09-01T09:15:03;5.30;;;2.25;;
9364;SDS011;4722;49.340;9.800;2022-09-01T09:17:39;3.80;;;2.08;;
9364;SDS011;4722;49.340;9.800;2022-09-01T09:20:23;6.50;;;2.38;;
9364;SDS011;4722;49.340;9.800;2022-09-01T09:22:50;4.55;;;1.90;;
9364;SDS011;4722;49.340;9.800;2022-09-01T09:25:17;5.53;;;2.38;;
9364;SDS011;4722;49.340;9.800;2022-09-01T09:27:44;3.78;;;1.63;;
9364;SDS011;4722;49.340;9.800;2022-09-01T09:30:21;3.90;;;2.13;;
9364;SDS011;4722;49.340;9.800;2022-09-01T09:35:31;3.85;;;1.50;;
9364;SDS011;4722;49.340;9.800;2022-09-01T09:43:31;11.70;;;4.70;;
9364;SDS011;4722;49.340;9.800;2022-09-01T09:46:45;5.55;;;1.83;;
9364;SDS011;4722;49.340;9.800;2022-09-01T09:51:32;3.78;;;1.27;;
9364;SDS011;4722;49.340;9.800;2022-09-01T09:56:40;3.90;;;2.30;;
9364;SDS011;4722;49.340;9.800;2022-09-01T09:59:22;3.22;;;1.48;;
9364;SDS011;4722;49.340;9.800;2022-09-01T10:01:56;2.75;;;1.65;;
9364;SDS011;4722;49.340;9.800;2022-09-01T10:04:38;3.47;;;1.50;;
9364;SDS011;4722;49.340;9.800;2022-09-01T10:09:49;6.05;;;1.85;;
9364;SDS011;4722;49.340;9.800;2022-09-01T10:12:16;6.10;;;1.60;;
9364;SDS011;4722;49.340;9.800;2022-09-01T10:14:56;3.38;;;1.60;;
9364;SDS011;4722;49.340;9.800;2022-09-01T10:17:35;2.53;;;1.02;;
9364;SDS011;4722;49.340;9.800;2022-09-01T10:20:08;2.90;;;1.23;;
9364;SDS011;4722;49.340;9.800;2022-09-01T10:22:40;6.15;;;1.77;;
9364;SDS011;4722;49.340;9.800;2022-09-01T10:25:07;4.57;;;1.70;;
9364;SDS011;4722;49.340;9.800;2022-09-01T10:27:46;3.08;;;1.50;;
9364;SDS011;4722;49.340;9.800;2022-09-01T10:30:20;3.05;;;1.65;;
9364;SDS011;4722;49.340;9.800;2022-09-01T10:32:50;4.50;;;2.22;;
9364;SDS011;4722;49.340;9.800;2022-09-01T10:35:22;6.97;;;2.63;;
9364;SDS011;4722;49.340;9.800;2022-09-01T10:37:49;4.10;;;1.58;;
9364;SDS011;4722;49.340;9.800;2022-09-01T10:40:20;2.47;;;1.35;;
9364;SDS011;4722;49.340;9.800;2022-09-01T10:45:47;1.30;;;1.08;;
9364;SDS011;4722;49.340;9.800;2022-09-01T10:50:45;2.40;;;1.33;;
9364;SDS011;4722;49.340;9.800;2022-09-01T10:56:00;4.07;;;2.17;;
9364;SDS011;4722;49.340;9.800;2022-09-01T11:04:09;3.20;;;1.58;;
9364;SDS011;4722;49.340;9.800;2022-09-01T11:06:43;7.20;;;2.45;;
9364;SDS011;4722;49.340;9.800;2022-09-01T11:14:22;3.30;;;1.30;;
9364;SDS011;4722;49.340;9.800;2022-09-01T11:17:13;6.82;;;3.13;;
9364;SDS011;4722;49.340;9.800;2022-09-01T11:19:43;3.65;;;1.40;;
9364;SDS011;4722;49.340;9.800;2022-09-01T11:22:18;3.58;;;2.28;;
9364;SDS011;4722;49.340;9.800;2022-09-01T11:28:02;6.03;;;1.58;;
9364;SDS011;4722;49.340;9.800;2022-09-01T11:30:58;4.78;;;2.33;;
9364;SDS011;4722;49.340;9.800;2022-09-01T11:44:14;5.78;;;2.20;;
9364;SDS011;4722;49.340;9.800;2022-09-01T11:46:49;4.97;;;1.20;;
9364;SDS011;4722;49.340;9.800;2022-09-01T11:49:27;4.82;;;2.38;;
9364;SDS011;4722;49.340;9.800;2022-09-01T11:51:55;4.43;;;1.77;;
9364;SDS011;4722;49.340;9.800;2022-09-01T11:54:21;6.38;;;2.08;;
9364;SDS011;4722;49.340;9.800;2022-09-01T11:56:48;4.18;;;2.03;;
9364;SDS011;4722;49.340;9.800;2022-09-01T11:59:28;4.22;;;1.85;;
9364;SDS011;4722;49.340;9.800;2022-09-01T12:02:03;4.65;;;1.60;;
9364;SDS011;4722;49.340;9.800;2022-09-01T12:04:30;5.43;;;2.25;;
9364;SDS011;4722;49.340;9.800;2022-09-01T12:07:06;5.43;;;2.38;;
9364;SDS011;4722;49.340;9.800;2022-09-01T12:09:46;5.80;;;1.98;;
9364;SDS011;4722;49.340;9.800;2022-09-01T12:12:28;3.45;;;1.27;;
9364;SDS011;4722;49.340;9.800;2022-09-01T12:15:04;3.90;;;1.88;;
9364;SDS011;4722;49.340;9.800;2022-09-01T12:17:34;1.88;;;1.30;;
9364;SDS011;4722;49.340;9.800;2022-09-01T12:22:51;1.80;;;0.90;;
9364;SDS011;4722;49.340;9.800;2022-09-01T12:25:18;1.73;;;1.10;;
9364;SDS011;4722;49.340;9.800;2022-09-01T12:27:46;2.67;;;1.25;;
9364;SDS011;4722;49.340;9.800;2022-09-01T12:30:12;10.25;;;4.10;;
9364;SDS011;4722;49.340;9.800;2022-09-01T12:32:39;5.50;;;2.45;;
9364;SDS011;4722;49.340;9.800;2022-09-01T12:35:10;7.90;;;2.13;;
9364;SDS011;4722;49.340;9.800;2022-09-01T12:37:44;4.88;;;1.80;;
9364;SDS011;4722;49.340;9.800;2022-09-01T12:43:05;4.30;;;1.27;;
9364;SDS011;4722;49.340;9.800;2022-09-01T12:48:22;3.75;;;1.30;;
9364;SDS011;4722;49.340;9.800;2022-09-01T12:50:59;1.88;;;0.90;;
9364;SDS011;4722;49.340;9.800;2022-09-01T12:53:28;8.80;;;2.33;;
9364;SDS011;4722;49.340;9.800;2022-09-01T12:55:58;2.75;;;1.40;;
9364;SDS011;4722;49.340;9.800;2022-09-01T12:58:27;3.33;;;1.48;;
9364;SDS011;4722;49.340;9.800;2022-09-01T13:01:06;9.27;;;2.58;;
9364;SDS011;4722;49.340;9.800;2022-09-01T13:03:34;3.90;;;1.48;;
9364;SDS011;4722;49.340;9.800;2022-09-01T13:06:01;9.20;;;1.92;;
9364;SDS011;4722;49.340;9.800;2022-09-01T13:08:29;9.27;;;3.33;;
9364;SDS011;4722;49.340;9.800;2022-09-01T13:11:17;3.75;;;1.10;;
9364;SDS011;4722;49.340;9.800;2022-09-01T13:13:42;4.15;;;1.27;;
9364;SDS011;4722;49.340;9.800;2022-09-01T13:16:08;3.47;;;1.00;;
9364;SDS011;4722;49.340;9.800;2022-09-01T13:18:36;2.78;;;1.45;;
9364;SDS011;4722;49.340;9.800;2022-09-01T13:21:03;4.93;;;1.75;;
9364;SDS011;4722;49.340;9.800;2022-09-01T13:23:30;1.90;;;1.00;;
9364;SDS011;4722;49.340;9.800;2022-09-01T13:25:56;2.00;;;0.95;;
9364;SDS011;4722;49.340;9.800;2022-09-01T13:28:23;2.28;;;1.10;;
9364;SDS011;4722;49.340;9.800;2022-09-01T13:30:51;1.88;;;1.20;;
9364;SDS011;4722;49.340;9.800;2022-09-01T13:33:22;3.67;;;1.50;;
9364;SDS011;4722;49.340;9.800;2022-09-01T13:35:49;4.13;;;1.33;;
9364;SDS011;4722;49.340;9.800;2022-09-01T13:38:15;2.15;;;1.33;;
9364;SDS011;4722;49.340;9.800;2022-09-01T13:40:42;3.40;;;1.17;;
9364;SDS011;4722;49.340;9.800;2022-09-01T13:43:09;1.63;;;0.88;;
9364;SDS011;4722;49.340;9.800;2022-09-01T13:45:35;2.38;;;1.10;;
9364;SDS011;4722;49.340;9.800;2022-09-01T13:48:02;1.83;;;1.30;;
9364;SDS011;4722;49.340;9.800;2022-09-01T13:50:28;2.92;;;0.77;;
9364;SDS011;4722;49.340;9.800;2022-09-01T13:52:54;1.25;;;0.98;;
9364;SDS011;4722;49.340;9.800;2022-09-01T13:55:22;1.45;;;0.80;;
9364;SDS011;4722;49.340;9.800;2022-09-01T13:57:52;1.27;;;1.17;;
9364;SDS011;4722;49.340;9.800;2022-09-01T14:00:19;1.15;;;0.70;;
9364;SDS011;4722;49.340;9.800;2022-09-01T14:02:48;4.00;;;1.33;;
9364;SDS011;4722;49.340;9.800;2022-09-01T14:05:20;1.88;;;1.40;;
9364;SDS011;4722;49.340;9.800;2022-09-01T14:07:48;1.70;;;1.08;;
9364;SDS011;4722;49.340;9.800;2022-09-01T14:10:14;7.03;;;1.23;;
9364;SDS011;4722;49.340;9.800;2022-09-01T14:12:41;3.03;;;1.48;;
9364;SDS011;4722;49.340;9.800;2022-09-01T14:15:08;1.98;;;1.33;;
9364;SDS011;4722;49.340;9.800;2022-09-01T14:17:35;1.60;;;1.00;;
9364;SDS011;4722;49.340;9.800;2022-09-01T14:20:03;1.88;;;1.13;;
9364;SDS011;4722;49.340;9.800;2022-09-01T14:22:32;2.05;;;1.20;;
9364;SDS011;4722;49.340;9.800;2022-09-01T14:24:58;4.00;;;1.10;;
9364;SDS011;4722;49.340;9.800;2022-09-01T14:27:24;1.20;;;0.90;;
9364;SDS011;4722;49.340;9.800;2022-09-01T14:29:50;1.98;;;1.08;;
9364;SDS011;4722;49.340;9.800;2022-09-01T14:32:17;2.58;;;1.42;;
9364;SDS011;4722;49.340;9.800;2022-09-01T14:34:43;1.80;;;0.95;;
9364;SDS011;4722;49.340;9.800;2022-09-01T14:37:09;2.00;;;1.15;;
9364;SDS011;4722;49.340;9.800;2022-09-01T14:39:35;1.80;;;1.20;;
9364;SDS011;4722;49.340;9.800;2022-09-01T14:42:02;1.45;;;0.88;;
9364;SDS011;4722;49.340;9.800;2022-09-01T14:44:36;2.95;;;1.42;;
9364;SDS011;4722;49.340;9.800;2022-09-01T14:47:03;1.48;;;1.05;;
9364;SDS011;4722;49.340;9.800;2022-09-01T14:49:30;2.92;;;1.25;;
9364;SDS011;4722;49.340;9.800;2022-09-01T14:52:00;2.20;;;1.33;;
9364;SDS011;4722;49.340;9.800;2022-09-01T14:54:28;1.80;;;1.08;;
9364;SDS011;4722;49.340;9.800;2022-09-01T14:56:54;2.30;;;1.30;;
9364;SDS011;4722;49.340;9.800;2022-09-01T14:59:20;1.33;;;0.75;;
9364;SDS011;4722;49.340;9.800;2022-09-01T15:01:46;2.97;;;1.33;;
9364;SDS011;4722;49.340;9.800;2022-09-01T15:04:12;2.05;;;1.10;;
9364;SDS011;4722;49.340;9.800;2022-09-01T15:06:38;2.72;;;1.20;;
9364;SDS011;4722;49.340;9.800;2022-09-01T15:09:03;3.13;;;0.82;;
9364;SDS011;4722;49.340;9.800;2022-09-01T15:11:29;2.10;;;1.33;;
9364;SDS011;4722;49.340;9.800;2022-09-01T15:13:55;1.58;;;1.20;;
9364;SDS011;4722;49.340;9.800;2022-09-01T15:16:22;1.88;;;1.25;;
9364;SDS011;4722;49.340;9.800;2022-09-01T15:18:49;2.35;;;1.23;;
9364;SDS011;4722;49.340;9.800;2022-09-01T15:21:19;2.50;;;1.10;;
9364;SDS011;4722;49.340;9.800;2022-09-01T15:23:46;2.28;;;1.50;;
9364;SDS011;4722;49.340;9.800;2022-09-01T15:26:13;2.53;;;1.05;;
9364;SDS011;4722;49.340;9.800;2022-09-01T15:28:41;2.35;;;1.10;;
9364;SDS011;4722;49.340;9.800;2022-09-01T15:31:07;8.70;;;2.78;;
9364;SDS011;4722;49.340;9.800;2022-09-01T15:33:34;2.55;;;1.50;;
9364;SDS011;4722;49.340;9.800;2022-09-01T15:36:00;2.08;;;0.98;;
9364;SDS011;4722;49.340;9.800;2022-09-01T15:38:26;3.30;;;1.40;;
9364;SDS011;4722;49.340;9.800;2022-09-01T15:40:52;7.22;;;2.95;;
9364;SDS011;4722;49.340;9.800;2022-09-01T15:43:19;3.83;;;1.50;;
9364;SDS011;4722;49.340;9.800;2022-09-01T15:45:46;6.90;;;1.63;;
9364;SDS011;4722;49.340;9.800;2022-09-01T15:48:12;3.30;;;1.10;;
9364;SDS011;4722;49.340;9.800;2022-09-01T15:50:37;3.65;;;1.75;;
9364;SDS011;4722;49.340;9.800;2022-09-01T15:53:04;6.70;;;2.72;;
9364;SDS011;4722;49.340;9.800;2022-09-01T15:55:45;6.80;;;2.60;;
9364;SDS011;4722;49.340;9.800;2022-09-01T15:58:13;9.82;;;2.95;;
9364;SDS011;4722;49.340;9.800;2022-09-01T16:00:41;7.57;;;2.75;;
9364;SDS011;4722;49.340;9.800;2022-09-01T16:03:07;2.75;;;1.30;;
9364;SDS011;4722;49.340;9.800;2022-09-01T16:05:34;2.08;;;0.80;;
9364;SDS011;4722;49.340;9.800;2022-09-01T16:08:03;3.55;;;1.45;;
9364;SDS011;4722;49.340;9.800;2022-09-01T16:10:33;2.40;;;1.38;;
9364;SDS011;4722;49.340;9.800;2022-09-01T16:12:59;4.13;;;1.52;;
9364;SDS011;4722;49.340;9.800;2022-09-01T16:15:25;2.35;;;1.17;;
9364;SDS011;4722;49.340;9.800;2022-09-01T16:23:29;2.78;;;1.40;;
9364;SDS011;4722;49.340;9.800;2022-09-01T16:26:03;1.98;;;1.40;;
9364;SDS011;4722;49.340;9.800;2022-09-01T16:28:30;2.00;;;1.15;;
9364;SDS011;4722;49.340;9.800;2022-09-01T16:31:03;1.80;;;1.00;;
9364;SDS011;4722;49.340;9.800;2022-09-01T16:33:36;2.05;;;1.02;;
9364;SDS011;4722;49.340;9.800;2022-09-01T16:36:37;1.92;;;1.10;;
9364;SDS011;4722;49.340;9.800;2022-09-01T16:52:45;1.05;;;0.90;;
9364;SDS011;4722;49.340;9.800;2022-09-01T16:55:37;1.90;;;1.10;;
9364;SDS011;4722;49.340;9.800;2022-09-01T16:58:35;0.85;;;0.65;;
9364;SDS011;4722;49.340;9.800;2022-09-01T17:01:43;2.13;;;1.00;;